Time;durP1;ratioP1;P1;durP2;ratioP2;P2;SDS_P1;SDS_P2;PMS_P1;PMS_P2;Temp;Humidity;BMP_temperature;BMP_pressure;BME280_temperature;BME280_humidity;BME280_pressure;Samples;Min_cycle;Max_cycle;Signal;HPM_P1;HPM_P2
2023/08/16 00:02:12;;;;;;;10.27;4.00;;;20.40;99.90;;;19.60;100.00;101465.03;4954858;28;20104;-74
2023/08/16 00:04:37;;;;;;;10.50;3.70;;;20.30;99.90;;;19.61;100.00;101462.25;4951320;28;20042;-75
2023/08/16 00:07:03;;;;;;;17.65;4.78;;;20.30;99.90;;;19.62;100.00;101455.09;4955682;28;20066;-74
2023/08/16 00:09:29;;;;;;;14.35;4.70;;;20.30;99.90;;;19.59;100.00;101461.50;4939389;28;20189;-75
2023/08/16 00:11:55;;;;;;;7.97;3.60;;;20.30;99.90;;;19.59;100.00;101468.66;4961647;28;20118;-74
2023/08/16 00:14:22;;;;;;;12.23;4.65;;;20.30;99.90;;;19.61;100.00;101466.72;4953925;28;20054;-74
2023/08/16 00:16:48;;;;;;;12.57;4.32;;;20.30;99.90;;;19.60;100.00;101459.69;4968597;28;20034;-74
2023/08/16 00:19:14;;;;;;;13.07;4.15;;;20.30;99.90;;;19.58;100.00;101467.81;4954735;28;20046;-74
2023/08/16 00:21:41;;;;;;;6.35;3.70;;;20.30;99.90;;;19.58;100.00;101473.16;4952279;28;20030;-74
2023/08/16 00:24:07;;;;;;;13.25;4.45;;;20.30;99.90;;;19.58;100.00;101483.81;4955570;28;20150;-75
2023/08/16 00:26:33;;;;;;;11.27;3.85;;;20.30;99.90;;;19.61;100.00;101491.63;4957625;28;20039;-74
2023/08/16 00:29:00;;;;;;;10.88;3.60;;;20.30;99.90;;;19.64;100.00;101493.22;4937950;28;20081;-74
2023/08/16 00:31:26;;;;;;;11.07;3.78;;;20.30;99.90;;;19.67;100.00;101493.00;4966556;28;20052;-74
2023/08/16 00:33:51;;;;;;;10.40;3.58;;;20.40;99.90;;;19.68;100.00;101500.06;4953791;28;20027;-74
2023/08/16 00:36:17;;;;;;;12.93;4.28;;;20.40;99.90;;;19.65;100.00;101500.25;4954705;28;21339;-75
2023/08/16 00:38:43;;;;;;;12.77;4.65;;;20.40;99.90;;;19.61;100.00;101515.69;4955735;28;20122;-74
2023/08/16 00:41:13;;;;;;;17.17;4.85;;;20.40;99.90;;;19.57;100.00;101524.03;4950473;28;20054;-74
2023/08/16 00:43:39;;;;;;;13.35;5.25;;;20.30;99.90;;;19.57;100.00;101524.03;4951993;28;20039;-74
2023/08/16 00:46:11;;;;;;;11.07;4.80;;;20.30;99.90;;;19.61;100.00;101530.84;4940556;28;20084;-75
2023/08/16 00:48:40;;;;;;;8.63;4.47;;;20.40;99.90;;;19.66;100.00;101523.34;4955446;28;20093;-75
2023/08/16 00:51:07;;;;;;;11.90;4.88;;;20.40;99.90;;;19.70;100.00;101524.88;4937320;28;20042;-74
2023/08/16 00:53:34;;;;;;;12.98;4.80;;;20.40;99.90;;;19.73;100.00;101515.78;4934501;28;20064;-74
2023/08/16 00:56:01;;;;;;;12.93;4.70;;;20.40;99.90;;;19.75;100.00;101509.34;4943654;28;20122;-75
2023/08/16 00:58:27;;;;;;;14.38;4.32;;;20.50;99.90;;;19.77;100.00;101511.94;4952938;28;20049;-75
2023/08/16 01:00:53;;;;;;;13.25;4.55;;;20.50;99.90;;;19.80;100.00;101507.19;4938328;28;20031;-75
2023/08/16 01:03:19;;;;;;;13.23;5.55;;;20.50;99.90;;;19.81;100.00;101492.03;4952397;28;20646;-75
2023/08/16 01:05:45;;;;;;;19.08;6.40;;;20.50;99.90;;;19.74;100.00;101469.38;4960127;28;20054;-75
2023/08/16 01:08:11;;;;;;;15.88;6.85;;;20.40;99.90;;;19.57;100.00;101454.59;4939149;28;20035;-75
2023/08/16 01:10:52;;;;;;;16.02;5.80;;;20.30;99.90;;;19.50;100.00;101455.97;4951276;28;20160;-75
2023/08/16 01:13:56;;;;;;;10.85;4.50;;;20.30;99.90;;;19.51;100.00;101465.72;4971512;28;20058;-76
2023/08/16 01:16:26;;;;;;;9.68;5.50;;;20.30;99.90;;;19.49;100.00;101472.97;4967365;28;20054;-76
2023/08/16 01:18:53;;;;;;;16.20;6.45;;;20.20;99.90;;;19.42;100.00;101478.75;4937728;28;20035;-75
2023/08/16 01:21:20;;;;;;;17.80;6.78;;;20.20;99.90;;;19.37;100.00;101496.06;4952960;28;20038;-76
2023/08/16 01:24:08;;;;;;;18.63;6.63;;;20.20;99.90;;;19.26;100.00;101512.84;4953640;28;20042;-75
2023/08/16 01:26:36;;;;;;;20.30;8.05;;;20.10;99.90;;;19.19;100.00;101524.94;4939756;28;20552;-75
2023/08/16 01:29:05;;;;;;;16.27;7.03;;;20.10;99.90;;;19.19;100.00;101522.25;4938625;28;20060;-75
2023/08/16 01:31:35;;;;;;;18.00;7.53;;;20.00;99.90;;;19.13;100.00;101514.69;4967438;28;20046;-75
2023/08/16 01:34:01;;;;;;;11.23;6.15;;;20.00;99.90;;;19.17;100.00;101510.84;4951739;28;20031;-75
2023/08/16 01:36:27;;;;;;;16.02;6.47;;;20.00;99.90;;;19.23;100.00;101516.59;4935564;28;20097;-75
2023/08/16 01:38:55;;;;;;;10.23;6.35;;;20.00;99.90;;;19.29;100.00;101506.44;4945630;28;20084;-75
2023/08/16 01:41:41;;;;;;;12.65;5.72;;;20.10;99.90;;;19.34;100.00;101493.63;4951049;28;20565;-76
2023/08/16 01:44:09;;;;;;;19.48;8.68;;;20.00;99.90;;;19.30;100.00;101495.66;4956953;28;20388;-76
2023/08/16 01:46:37;;;;;;;13.75;6.85;;;20.10;99.90;;;19.34;100.00;101496.28;4949580;28;20463;-75
2023/08/16 01:49:04;;;;;;;16.48;6.97;;;20.10;99.90;;;19.35;100.00;101506.88;4936810;28;20113;-75
2023/08/16 01:51:30;;;;;;;17.25;7.35;;;20.10;99.90;;;19.35;100.00;101520.22;4942175;28;20043;-75
2023/08/16 01:53:56;;;;;;;14.60;6.90;;;20.10;99.90;;;19.37;100.00;101520.09;4939590;28;20031;-75
2023/08/16 01:56:22;;;;;;;16.90;6.90;;;20.10;99.90;;;19.39;100.00;101518.16;4953135;28;20043;-76
2023/08/16 01:58:50;;;;;;;21.00;7.65;;;20.10;99.90;;;19.40;100.00;101514.56;4937901;28;20505;-76
2023/08/16 02:01:16;;;;;;;15.40;7.07;;;20.10;99.90;;;19.41;100.00;101517.09;4951059;28;20046;-76
2023/08/16 02:03:42;;;;;;;14.77;6.35;;;20.10;99.90;;;19.43;100.00;101523.19;4966283;28;20026;-76
2023/08/16 02:06:08;;;;;;;21.55;8.93;;;20.10;99.90;;;19.42;100.00;101513.47;4951085;28;20495;-76
2023/08/16 02:08:34;;;;;;;12.43;5.88;;;20.10;99.90;;;19.43;100.00;101517.00;4953367;28;20031;-76
2023/08/16 02:10:59;;;;;;;14.32;6.28;;;20.10;99.90;;;19.42;100.00;101521.47;4953679;28;20405;-76
2023/08/16 02:13:25;;;;;;;15.77;7.47;;;20.10;99.90;;;19.42;100.00;101534.84;4955384;28;20534;-76
2023/08/16 02:16:01;;;;;;;;;;;20.10;99.90;;;19.37;100.00;101517.41;4921810;28;20473;-76
2023/08/16 02:18:29;;;;;;;20.23;9.02;;;20.10;99.90;;;19.34;100.00;101517.66;4957120;28;19929;-76
2023/08/16 02:20:56;;;;;;;13.60;7.45;;;20.10;99.90;;;19.33;100.00;101516.81;4943878;28;20043;-76
2023/08/16 02:23:22;;;;;;;23.13;9.00;;;20.10;99.90;;;19.31;100.00;101518.72;4958087;28;20054;-76
2023/08/16 02:25:48;;;;;;;19.15;8.45;;;20.10;99.90;;;19.28;100.00;101532.28;4958070;28;20034;-76
2023/08/16 02:28:14;;;;;;;11.02;7.00;;;20.00;99.90;;;19.30;100.00;101540.19;4949792;28;20674;-76
2023/08/16 02:30:40;;;;;;;17.70;7.00;;;20.00;99.90;;;19.30;100.00;101543.72;4951969;28;20062;-76
2023/08/16 02:33:05;;;;;;;16.85;7.15;;;20.00;99.90;;;19.30;100.00;101538.38;4975066;28;20136;-76
2023/08/16 02:35:31;;;;;;;13.52;6.82;;;20.00;99.90;;;19.30;100.00;101541.03;4949670;28;20037;-76
2023/08/16 02:37:57;;;;;;;16.48;8.13;;;20.10;99.90;;;19.29;100.00;101539.34;4974550;28;20109;-76
2023/08/16 02:40:23;;;;;;;17.65;8.43;;;20.00;99.90;;;19.26;100.00;101540.41;4947776;28;20035;-76
2023/08/16 02:42:50;;;;;;;17.08;8.38;;;20.00;99.90;;;19.26;100.00;101536.88;4960782;28;20041;-76
2023/08/16 02:45:17;;;;;;;14.57;7.15;;;20.00;99.90;;;19.25;100.00;101535.19;4936727;28;20049;-76
2023/08/16 02:47:43;;;;;;;12.88;6.78;;;20.00;99.90;;;19.26;100.00;101542.22;4959856;28;20033;-76
2023/08/16 02:50:09;;;;;;;12.68;6.57;;;20.00;99.90;;;19.27;100.00;101550.13;4941742;28;20047;-76
2023/08/16 02:52:35;;;;;;;14.10;8.02;;;20.00;99.90;;;19.27;100.00;101551.94;4956823;28;20038;-75
2023/08/16 02:55:01;;;;;;;12.85;6.55;;;20.00;99.90;;;19.29;100.00;101563.38;4943497;28;20401;-76
2023/08/16 02:57:27;;;;;;;14.63;6.55;;;20.00;99.90;;;19.29;100.00;101550.03;4936811;28;20072;-76
2023/08/16 02:59:53;;;;;;;14.23;6.38;;;20.00;99.90;;;19.30;100.00;101565.06;4958282;28;20109;-76
2023/08/16 03:02:19;;;;;;;12.02;6.53;;;20.00;99.90;;;19.32;100.00;101565.81;4959696;28;20034;-76
2023/08/16 03:04:45;;;;;;;23.17;8.95;;;20.00;99.90;;;19.30;100.00;101581.09;4959218;28;20053;-76
2023/08/16 03:07:11;;;;;;;29.30;11.52;;;20.10;99.90;;;19.31;100.00;101588.16;4942276;28;20419;-76
2023/08/16 03:09:38;;;;;;;18.90;11.23;;;20.00;99.90;;;19.32;100.00;101592.53;4961262;28;20041;-76
2023/08/16 03:12:05;;;;;;;23.67;13.82;;;20.00;99.90;;;19.32;100.00;101594.34;4945848;28;20034;-75
2023/08/16 03:14:31;;;;;;;32.15;14.85;;;20.00;99.90;;;19.31;100.00;101601.50;4956279;28;20045;-75
2023/08/16 03:16:58;;;;;;;25.80;15.13;;;20.00;99.90;;;19.30;100.00;101605.13;4955645;28;20628;-75
2023/08/16 03:19:24;;;;;;;27.00;15.25;;;20.00;99.90;;;19.32;100.00;101595.19;4957845;28;20054;-76
2023/08/16 03:21:50;;;;;;;28.48;15.90;;;20.10;99.90;;;19.34;100.00;101581.75;4942003;28;20036;-76
2023/08/16 03:24:16;;;;;;;29.73;17.10;;;20.00;99.90;;;19.34;100.00;101582.59;4956297;28;20043;-76
2023/08/16 03:26:41;;;;;;;20.00;12.63;;;20.10;99.90;;;19.37;100.00;101589.53;4945924;28;20097;-76
2023/08/16 03:29:07;;;;;;;25.13;14.65;;;20.10;99.90;;;19.38;100.00;101586.75;4938261;28;20041;-76
2023/08/16 03:31:33;;;;;;;29.13;14.63;;;20.10;99.90;;;19.39;100.00;101591.13;4946375;28;20403;-76
2023/08/16 03:33:59;;;;;;;27.92;14.45;;;20.10;99.90;;;19.40;100.00;101605.34;4958062;28;20073;-76
2023/08/16 03:36:27;;;;;;;21.75;12.73;;;20.10;99.90;;;19.41;100.00;101604.38;4976863;28;20471;-76
2023/08/16 03:38:53;;;;;;;27.17;13.73;;;20.10;99.90;;;19.39;100.00;101607.13;4952104;28;20034;-77
2023/08/16 03:41:18;;;;;;;23.27;12.82;;;20.10;99.90;;;19.41;100.00;101605.22;4950492;28;20070;-76
2023/08/16 03:43:44;;;;;;;26.13;14.02;;;20.10;99.90;;;19.42;100.00;101606.94;4959452;28;20125;-76
2023/08/16 03:46:10;;;;;;;21.88;13.02;;;20.10;99.90;;;19.43;100.00;101613.13;4957160;28;20402;-76
2023/08/16 03:48:36;;;;;;;18.13;11.40;;;20.20;99.90;;;19.43;100.00;101619.31;4954351;28;20656;-76
2023/08/16 03:51:02;;;;;;;29.88;15.10;;;20.20;99.90;;;19.43;100.00;101624.66;4933856;28;20502;-76
2023/08/16 03:53:28;;;;;;;20.00;10.98;;;20.10;99.90;;;19.39;100.00;101615.16;4954164;28;20062;-75
2023/08/16 03:55:58;;;;;;;14.25;6.82;;;20.10;99.90;;;19.36;100.00;101604.69;4948158;28;20054;-76
2023/08/16 03:58:24;;;;;;;11.80;5.95;;;20.10;99.90;;;19.32;100.00;101605.88;4953701;28;20034;-76
2023/08/16 04:00:52;;;;;;;9.93;5.78;;;20.10;99.90;;;19.30;100.00;101618.47;4955961;28;20789;-76
2023/08/16 04:03:18;;;;;;;11.93;5.05;;;20.00;99.90;;;19.28;100.00;101615.06;4954984;28;20125;-76
2023/08/16 04:05:44;;;;;;;10.50;5.13;;;20.00;99.90;;;19.25;100.00;101618.78;4944704;28;20054;-76
2023/08/16 04:08:13;;;;;;;12.05;4.13;;;20.00;99.90;;;19.21;100.00;101614.63;4957948;28;20030;-76
2023/08/16 04:10:39;;;;;;;13.38;3.80;;;19.90;99.90;;;19.17;100.00;101606.94;4956168;28;20042;-76
2023/08/16 04:13:05;;;;;;;8.82;3.80;;;19.90;99.90;;;19.14;100.00;101620.50;4955158;28;20037;-76
2023/08/16 04:15:31;;;;;;;13.10;4.65;;;19.90;99.90;;;19.08;100.00;101628.94;4944323;28;20039;-76
2023/08/16 04:17:57;;;;;;;10.30;4.22;;;19.80;99.90;;;19.03;100.00;101634.59;4956270;28;20469;-76
2023/08/16 04:20:24;;;;;;;14.02;4.18;;;19.80;99.90;;;18.96;100.00;101642.16;4945787;28;20119;-76
2023/08/16 04:22:50;;;;;;;15.05;3.85;;;19.70;99.90;;;18.94;100.00;101648.53;4937555;28;20651;-76
2023/08/16 04:25:16;;;;;;;12.77;3.33;;;19.70;99.90;;;18.93;100.00;101650.34;4954365;28;20030;-76
2023/08/16 04:27:43;;;;;;;9.68;3.70;;;19.70;99.90;;;18.86;100.00;101654.41;4953277;28;20038;-76
2023/08/16 04:30:10;;;;;;;9.95;4.38;;;19.60;99.90;;;18.73;100.00;101654.31;4963710;28;20046;-76
2023/08/16 04:32:36;;;;;;;16.55;4.05;;;19.50;99.90;;;18.70;100.00;101656.31;4954013;28;20030;-76
2023/08/16 04:35:03;;;;;;;14.27;5.45;;;19.50;99.90;;;18.71;100.00;101658.06;4957747;28;20018;-75
2023/08/16 04:37:29;;;;;;;14.93;7.15;;;19.50;99.90;;;18.72;100.00;101663.25;4946068;28;20069;-76
2023/08/16 04:39:57;;;;;;;20.10;8.88;;;19.50;99.90;;;18.71;100.00;101660.72;4952032;28;20443;-76
2023/08/16 04:42:23;;;;;;;13.18;7.20;;;19.50;99.90;;;18.73;100.00;101654.31;4957008;28;20031;-76
2023/08/16 04:44:49;;;;;;;20.45;7.60;;;19.50;99.90;;;18.75;100.00;101659.56;4951867;28;20047;-76
2023/08/16 04:47:14;;;;;;;16.25;7.50;;;19.50;99.90;;;18.81;100.00;101656.50;4938285;28;20043;-76
2023/08/16 04:49:40;;;;;;;18.77;7.88;;;19.50;99.90;;;18.85;100.00;101658.88;4955050;28;20117;-76
2023/08/16 04:52:06;;;;;;;12.93;6.70;;;19.60;99.90;;;18.88;100.00;101657.81;4937756;28;20601;-76
2023/08/16 04:54:34;;;;;;;12.95;8.52;;;19.60;99.90;;;18.92;100.00;101662.00;4954183;28;21852;-76
2023/08/16 04:57:00;;;;;;;17.85;7.00;;;19.60;99.90;;;19.00;100.00;101659.63;4962087;28;20056;-76
2023/08/16 04:59:26;;;;;;;23.65;10.02;;;19.60;99.90;;;19.04;100.00;101650.47;4952502;28;20058;-76
2023/08/16 05:01:52;;;;;;;19.88;9.07;;;19.80;99.90;;;19.38;100.00;101650.00;4948180;28;20126;-76
2023/08/16 05:04:17;;;;;;;;;;;19.80;99.90;;;19.35;100.00;101653.75;4937515;28;20047;-75
2023/08/16 05:06:43;;;;;;;22.80;10.75;;;19.90;99.90;;;19.57;100.00;101658.44;4952387;28;20370;-76
2023/08/16 05:09:09;;;;;;;17.50;9.07;;;20.40;99.90;;;21.25;100.00;101664.94;4937814;28;20497;-76
2023/08/16 05:11:37;;;;;;;14.38;7.28;;;21.30;99.90;;;23.25;91.36;101675.69;4961483;28;20121;-76
2023/08/16 05:14:03;;;;;;;19.13;6.68;;;22.60;99.90;;;25.50;77.49;101683.31;4951599;28;20035;-76
2023/08/16 05:16:29;;;;;;;15.52;5.85;;;23.80;99.90;;;26.31;71.59;101683.59;4936536;28;20043;-76
2023/08/16 05:18:57;;;;;;;16.13;5.15;;;24.70;99.90;;;27.14;68.96;101691.50;4940810;28;20046;-76
2023/08/16 05:21:23;;;;;;;15.40;5.03;;;25.50;99.90;;;27.50;66.42;101686.03;4951914;28;20043;-76
2023/08/16 05:23:49;;;;;;;14.35;5.22;;;25.60;99.90;;;25.64;69.30;101679.31;4954997;28;20487;-77
2023/08/16 05:26:17;;;;;;;12.43;5.38;;;25.10;99.90;;;24.66;72.04;101679.38;4951536;28;20070;-76
2023/08/16 05:28:43;;;;;;;12.23;4.72;;;24.70;99.90;;;23.83;75.05;101676.03;4939050;28;20523;-76
2023/08/16 05:31:10;;;;;;;13.02;5.25;;;24.20;99.90;;;23.18;77.64;101667.31;4953628;28;20038;-76
2023/08/16 05:33:37;;;;;;;10.35;5.00;;;23.70;99.90;;;22.61;79.75;101665.81;4952025;28;20035;-76
2023/08/16 05:36:03;;;;;;;13.85;4.55;;;23.20;99.90;;;22.17;81.70;101662.22;4934727;28;20042;-76
2023/08/16 05:38:29;;;;;;;11.73;5.35;;;22.90;99.90;;;21.94;84.29;101666.75;4952199;28;20038;-76
2023/08/16 05:40:55;;;;;;;12.65;5.13;;;22.80;99.90;;;21.73;86.17;101664.81;4954599;28;20088;-76
2023/08/16 05:43:21;;;;;;;9.50;4.63;;;22.40;99.90;;;21.65;87.64;101676.13;4936637;28;20134;-76
2023/08/16 05:45:46;;;;;;;10.30;3.97;;;22.30;99.90;;;21.56;88.14;101670.66;4937669;28;20416;-76
2023/08/16 05:48:12;;;;;;;14.15;4.40;;;22.20;99.90;;;21.56;87.88;101667.97;4952831;28;20034;-76
2023/08/16 05:50:39;;;;;;;14.82;4.60;;;22.20;99.90;;;21.64;87.51;101666.41;4945715;28;20027;-76
2023/08/16 05:53:05;;;;;;;8.77;4.00;;;22.20;99.90;;;21.89;86.05;101662.59;4954063;28;20117;-76
2023/08/16 05:55:31;;;;;;;15.55;5.25;;;22.50;99.90;;;23.45;81.59;101690.09;4942723;28;20035;-76
2023/08/16 05:57:57;;;;;;;9.73;3.58;;;23.20;99.90;;;25.91;72.46;101700.97;4956695;28;20413;-77
2023/08/16 06:00:23;;;;;;;8.20;3.28;;;23.90;99.90;;;24.59;74.23;101688.19;4954560;28;20054;-76
2023/08/16 06:02:48;;;;;;;6.88;3.60;;;24.10;99.90;;;24.03;75.04;101685.03;4935383;28;20041;-77
2023/08/16 06:05:14;;;;;;;13.77;4.30;;;24.10;99.90;;;23.77;75.97;101681.09;4952513;28;20064;-76
2023/08/16 06:07:40;;;;;;;8.90;4.20;;;24.00;99.90;;;24.52;75.43;101696.81;4937977;28;20034;-76
2023/08/16 06:10:07;;;;;;;13.55;3.95;;;24.10;99.90;;;24.52;73.41;101690.59;4953161;28;20088;-76
2023/08/16 06:12:33;;;;;;;11.88;3.75;;;24.80;99.90;;;27.69;65.02;101716.56;4948583;28;20037;-76
2023/08/16 06:14:58;;;;;;;9.55;3.58;;;25.90;99.90;;;29.85;60.05;101722.97;4945920;28;20034;-76
2023/08/16 06:17:24;;;;;;;9.10;3.28;;;27.60;99.90;;;32.60;53.41;101743.81;4946488;28;20494;-76
2023/08/16 06:19:50;;;;;;;14.80;3.38;;;29.40;99.90;;;34.62;49.23;101761.47;4920672;28;20039;-76
2023/08/16 06:22:16;;;;;;;9.38;3.30;;;31.20;99.90;;;36.19;45.87;101795.66;4922234;28;20042;-77
2023/08/16 06:24:42;;;;;;;11.00;3.33;;;32.50;99.90;;;36.93;43.17;101816.22;4951713;28;20059;-76
2023/08/16 06:27:08;;;;;;;13.30;3.30;;;33.40;99.90;;;36.77;42.55;101822.22;4950889;28;20034;-76
2023/08/16 06:29:35;;;;;;;8.13;2.92;;;34.00;98.50;;;37.23;41.22;101823.84;4952922;28;20046;-77
2023/08/16 06:32:02;;;;;;;9.77;2.75;;;34.50;98.50;;;37.71;40.88;101836.16;4929768;28;20030;-78
2023/08/16 06:34:27;;;;;;;9.32;2.50;;;35.10;96.20;;;38.08;39.20;101842.59;4935715;28;20046;-77
2023/08/16 06:36:53;;;;;;;6.45;2.17;;;35.50;96.60;;;37.64;39.96;101838.97;4951660;28;20047;-77
2023/08/16 06:39:19;;;;;;;6.40;2.33;;;35.50;94.80;;;36.52;40.88;101844.91;4952237;28;20038;-76
2023/08/16 06:41:46;;;;;;;7.93;2.42;;;34.80;94.70;;;34.08;44.52;101824.09;4934646;28;20046;-77
2023/08/16 06:44:11;;;;;;;7.72;2.22;;;33.60;96.20;;;32.09;48.07;101820.06;4955007;28;20046;-76
2023/08/16 06:46:37;;;;;;;12.30;2.35;;;32.40;96.80;;;30.62;50.63;101794.81;4954577;28;20037;-77
2023/08/16 06:49:03;;;;;;;8.38;1.92;;;31.20;98.80;;;29.59;52.71;101784.69;4951457;28;20027;-76
2023/08/16 06:51:29;;;;;;;10.20;2.17;;;30.20;99.30;;;28.59;54.78;101779.31;4951740;28;20118;-76
2023/08/16 06:53:55;;;;;;;9.00;2.08;;;29.30;99.90;;;28.11;55.11;101780.78;4953860;28;20038;-76
2023/08/16 06:56:20;;;;;;;10.80;2.47;;;28.70;99.90;;;27.80;56.60;101765.03;4952714;28;20106;-76
2023/08/16 06:58:46;;;;;;;11.13;2.00;;;28.30;99.90;;;27.88;56.48;101754.25;4936793;28;20104;-76
2023/08/16 07:01:12;;;;;;;9.38;2.20;;;28.00;99.90;;;27.69;57.06;101758.03;4969286;28;20121;-76
2023/08/16 07:03:38;;;;;;;6.68;2.10;;;28.30;99.90;;;29.74;53.87;101769.47;4939834;28;20449;-76
2023/08/16 07:06:04;;;;;;;7.68;2.15;;;29.50;99.90;;;32.22;49.09;101793.00;4958203;28;20034;-76
2023/08/16 07:08:30;;;;;;;8.00;2.13;;;31.10;99.90;;;34.06;45.14;101804.31;4933448;28;20094;-77
2023/08/16 07:10:56;;;;;;;6.97;1.70;;;32.90;99.90;;;35.69;42.17;101818.09;4947621;28;20089;-76
2023/08/16 07:13:21;;;;;;;6.60;2.13;;;34.20;96.30;;;36.30;40.64;101832.53;4983626;28;20454;-77
2023/08/16 07:15:47;;;;;;;8.07;1.83;;;35.10;94.50;;;36.86;39.73;101851.09;4947519;28;20546;-77
2023/08/16 07:18:13;;;;;;;12.60;2.20;;;36.00;93.40;;;37.46;38.58;101853.47;4952642;28;20041;-76
2023/08/16 07:20:39;;;;;;;8.32;2.08;;;36.70;92.50;;;38.12;38.21;101863.06;4951704;28;20494;-77
2023/08/16 07:23:06;;;;;;;5.07;1.88;;;37.30;91.20;;;38.20;37.40;101872.06;4957586;28;20194;-77
2023/08/16 07:25:33;;;;;;;4.35;1.83;;;37.70;90.70;;;38.42;36.97;101880.69;4938714;28;20066;-76
2023/08/16 07:27:58;;;;;;;8.23;2.05;;;38.00;90.80;;;38.74;36.07;101886.91;4953604;28;20510;-77
2023/08/16 07:30:24;;;;;;;6.53;1.77;;;38.30;87.20;;;38.80;35.73;101887.88;4968464;28;20118;-77
2023/08/16 07:32:50;;;;;;;10.55;1.90;;;38.60;87.50;;;39.05;35.10;101887.75;4974090;28;20129;-76
2023/08/16 07:35:16;;;;;;;5.57;1.80;;;39.00;85.40;;;39.25;34.80;101895.75;4953963;28;20118;-77
2023/08/16 07:37:43;;;;;;;6.07;1.63;;;38.90;83.60;;;38.77;34.73;101894.66;4940531;28;20614;-76
2023/08/16 07:40:10;;;;;;;6.20;1.50;;;39.10;85.70;;;39.15;34.92;101897.13;4969661;28;20057;-77
2023/08/16 07:42:37;;;;;;;8.00;1.80;;;39.20;85.10;;;39.49;34.83;101899.44;4953640;28;20031;-76
2023/08/16 07:45:05;;;;;;;7.25;1.95;;;39.30;82.90;;;39.00;35.33;101888.47;4940631;28;20521;-76
2023/08/16 07:47:31;;;;;;;17.33;2.05;;;39.00;83.00;;;38.60;35.34;101882.63;4947269;28;20042;-76
2023/08/16 07:49:56;;;;;;;8.60;1.73;;;39.10;84.60;;;38.85;35.86;101877.00;4955869;28;20450;-76
2023/08/16 07:52:22;;;;;;;9.00;2.05;;;39.10;82.60;;;38.62;35.61;101884.09;4937839;28;20051;-76
2023/08/16 07:54:48;;;;;;;7.43;2.20;;;39.00;83.50;;;38.62;35.93;101888.72;4940081;28;20054;-77
2023/08/16 07:57:14;;;;;;;10.90;1.95;;;39.00;84.30;;;38.72;35.71;101889.03;4956746;28;20117;-77
2023/08/16 07:59:40;;;;;;;10.63;2.10;;;39.10;84.00;;;38.91;35.77;101896.19;4969964;28;20046;-77
2023/08/16 08:02:07;;;;;;;8.35;1.90;;;39.00;84.30;;;38.59;36.05;101880.94;4961323;28;20041;-76
2023/08/16 08:04:34;;;;;;;7.90;1.73;;;38.70;83.50;;;37.94;37.49;101876.75;4937812;28;20038;-77
2023/08/16 08:07:00;;;;;;;8.10;1.95;;;38.30;85.50;;;37.15;37.70;101871.66;4973692;28;20429;-77
2023/08/16 08:09:26;;;;;;;6.55;2.03;;;37.80;83.30;;;37.11;37.07;101864.09;4969192;28;20108;-78
2023/08/16 08:11:52;;;;;;;14.52;2.03;;;37.50;84.50;;;36.74;37.88;101861.94;4951403;28;20517;-76
2023/08/16 08:14:18;;;;;;;9.27;2.10;;;37.20;82.20;;;36.37;37.59;101866.25;4923046;28;20439;-77
2023/08/16 08:16:44;;;;;;;9.55;2.20;;;36.50;85.10;;;35.34;39.55;101847.56;4948603;28;20042;-77
2023/08/16 08:19:10;;;;;;;9.63;2.10;;;36.30;88.50;;;35.40;40.35;101844.00;4981635;28;20037;-77
2023/08/16 08:21:36;;;;;;;5.63;1.90;;;35.80;84.50;;;34.72;40.59;101844.00;4953188;28;20051;-76
2023/08/16 08:24:02;;;;;;;5.88;1.60;;;35.70;89.60;;;34.70;41.50;101841.47;4962147;28;20050;-77
2023/08/16 08:26:28;;;;;;;5.03;1.90;;;35.50;89.90;;;35.05;41.08;101833.16;4957724;28;20043;-76
2023/08/16 08:28:54;;;;;;;6.45;1.98;;;35.40;89.30;;;34.95;40.19;101845.53;4963478;28;20979;-77
2023/08/16 08:31:21;;;;;;;7.10;1.65;;;35.50;90.20;;;35.56;40.24;101844.63;4951683;28;20065;-77
2023/08/16 08:33:47;;;;;;;6.13;2.03;;;35.60;89.60;;;35.46;41.09;101840.38;4957325;28;20376;-77
2023/08/16 08:36:13;;;;;;;5.63;1.98;;;35.70;90.10;;;35.47;40.51;101847.56;4953556;28;20275;-76
2023/08/16 08:38:40;;;;;;;6.50;1.88;;;35.20;86.10;;;34.40;41.34;101838.16;4960653;28;20023;-76
2023/08/16 08:41:06;;;;;;;4.72;1.55;;;34.90;90.00;;;34.26;41.18;101839.16;4966785;28;20031;-76
2023/08/16 08:43:37;;;;;;;7.25;1.70;;;34.50;89.40;;;33.91;41.25;101831.75;4957696;28;20477;-76
2023/08/16 08:46:06;;;;;;;5.35;1.60;;;34.20;90.80;;;33.89;42.38;101833.84;4967694;28;20042;-77
2023/08/16 08:48:33;;;;;;;9.02;2.20;;;34.10;90.50;;;33.86;42.43;101830.66;4945552;28;20100;-76
2023/08/16 08:51:02;;;;;;;6.47;1.67;;;34.00;92.10;;;33.84;43.66;101824.56;4953401;28;20027;-76
2023/08/16 08:53:28;;;;;;;8.63;2.63;;;33.50;92.10;;;32.60;44.86;101828.34;4972846;28;20109;-77
2023/08/16 08:55:56;;;;;;;9.75;2.05;;;32.70;91.90;;;31.59;46.91;101807.94;4960053;28;20046;-76
2023/08/16 08:58:25;;;;;;;7.07;1.83;;;31.90;93.20;;;30.64;49.23;101804.47;4942023;28;20030;-77
2023/08/16 09:00:53;;;;;;;10.35;1.90;;;31.20;93.80;;;30.30;48.92;101793.94;4955533;28;20031;-76
2023/08/16 09:03:25;;;;;;;10.07;2.35;;;30.50;93.10;;;29.32;50.02;101792.19;4986836;28;20491;-76
2023/08/16 09:05:56;;;;;;;8.93;2.03;;;29.90;94.50;;;29.01;51.10;101789.25;4973553;28;20410;-77
2023/08/16 09:08:26;;;;;;;7.95;1.77;;;29.70;95.60;;;29.12;51.47;101788.97;4989510;28;20452;-77
2023/08/16 09:10:53;;;;;;;6.05;1.45;;;29.70;96.60;;;29.70;51.88;101791.69;4946998;28;20498;-77
2023/08/16 09:13:22;;;;;;;5.40;1.63;;;30.00;95.80;;;30.14;51.10;101791.25;4948873;28;20074;-77
2023/08/16 09:15:51;;;;;;;7.38;1.77;;;30.10;95.70;;;30.02;49.85;101798.91;4955451;28;20569;-76
2023/08/16 09:18:22;;;;;;;8.95;1.80;;;30.20;95.30;;;29.90;50.55;101797.59;4938779;28;20061;-78
2023/08/16 09:20:49;;;;;;;4.55;1.50;;;30.10;96.00;;;29.80;50.67;101795.06;4947639;28;20406;-76
2023/08/16 09:23:19;;;;;;;6.07;1.77;;;30.10;96.60;;;28.97;50.00;101785.19;4936263;28;20410;-76
2023/08/16 09:25:50;;;;;;;9.57;1.77;;;29.70;96.50;;;29.08;52.87;101784.00;4958918;28;20031;-76
2023/08/16 09:28:19;;;;;;;9.20;2.03;;;29.50;94.80;;;29.00;51.29;101785.69;4954911;28;20042;-76
2023/08/16 09:30:47;;;;;;;10.57;2.00;;;29.50;95.40;;;28.98;50.60;101776.03;4956158;28;20034;-77
2023/08/16 09:33:17;;;;;;;6.63;1.52;;;29.50;95.40;;;28.98;51.51;101778.72;4936669;28;20063;-76
2023/08/16 09:35:49;;;;;;;7.22;1.70;;;29.40;96.60;;;28.76;51.22;101777.50;4954143;28;20027;-76
2023/08/16 09:38:24;;;;;;;4.57;1.50;;;29.40;95.70;;;28.98;50.50;101784.16;4971546;28;20034;-77
2023/08/16 09:40:52;;;;;;;6.68;1.67;;;29.20;96.00;;;28.58;51.35;101780.34;4954080;28;20031;-76
2023/08/16 09:43:25;;;;;;;8.80;1.95;;;29.20;95.40;;;28.72;50.65;101785.13;4965343;28;20037;-77
2023/08/16 09:45:54;;;;;;;6.63;1.90;;;29.40;95.50;;;29.17;50.13;101780.31;4959706;28;20039;-76
2023/08/16 09:48:25;;;;;;;10.23;2.10;;;29.60;96.50;;;29.52;50.23;101787.25;4958745;28;20031;-76
2023/08/16 09:50:58;;;;;;;5.63;1.50;;;29.60;95.60;;;29.47;50.19;101784.22;4949614;28;20483;-76
2023/08/16 09:53:28;;;;;;;7.85;1.60;;;29.60;96.80;;;29.08;52.53;101779.44;4958281;28;20038;-76
2023/08/16 09:55:59;;;;;;;9.68;1.80;;;29.60;95.90;;;29.12;50.82;101783.53;4960358;28;20039;-76
2023/08/16 09:58:32;;;;;;;3.78;1.50;;;29.40;94.00;;;28.72;49.98;101782.41;4959230;28;20046;-78
2023/08/16 10:00:58;;;;;;;6.82;1.80;;;28.50;95.00;;;26.87;54.92;101762.72;4991129;28;20038;-78
2023/08/16 10:03:25;;;;;;;10.45;1.80;;;28.10;95.20;;;26.88;53.04;101768.97;4962225;28;20086;-78
2023/08/16 10:05:53;;;;;;;6.80;1.65;;;27.90;97.10;;;26.84;54.47;101770.25;4946321;28;20086;-78